sensor_id;sensor_type;location;lat;lon;timestamp;pressure;altitude;pressure_sealevel;temperature;humidity
74346;BME280;62776;50.518;6.732;2023-06-04T00:02:10;96896.22;;;11.75;79.78
74346;BME280;62776;50.518;6.732;2023-06-04T00:04:56;96897.09;;;11.68;75.93
74346;BME280;62776;50.518;6.732;2023-06-04T00:07:43;96904.06;;;11.67;75.92
74346;BME280;62776;50.518;6.732;2023-06-04T00:10:43;96903.25;;;11.61;74.85
74346;BME280;62776;50.518;6.732;2023-06-04T00:13:30;96902.41;;;11.60;76.35
74346;BME280;62776;50.518;6.732;2023-06-04T00:16:16;96893.75;;;11.57;76.25
74346;BME280;62776;50.518;6.732;2023-06-04T00:19:03;96895.56;;;11.50;79.19
74346;BME280;62776;50.518;6.732;2023-06-04T00:21:50;96893.84;;;11.46;76.29
74346;BME280;62776;50.518;6.732;2023-06-04T00:24:38;96900.84;;;11.40;78.43
74346;BME280;62776;50.518;6.732;2023-06-04T00:27:28;96893.09;;;11.34;76.43
74346;BME280;62776;50.518;6.732;2023-06-04T00:30:16;96890.47;;;11.34;76.79
74346;BME280;62776;50.518;6.732;2023-06-04T00:33:02;96894.84;;;11.32;77.83
74346;BME280;62776;50.518;6.732;2023-06-04T00:35:49;96891.38;;;11.30;81.69
74346;BME280;62776;50.518;6.732;2023-06-04T00:38:35;96886.19;;;11.23;81.10
74346;BME280;62776;50.518;6.732;2023-06-04T00:41:21;96885.38;;;11.20;81.57
74346;BME280;62776;50.518;6.732;2023-06-04T00:44:08;96877.59;;;11.17;82.50
74346;BME280;62776;50.518;6.732;2023-06-04T00:46:54;96878.47;;;11.13;82.41
74346;BME280;62776;50.518;6.732;2023-06-04T00:49:40;96879.38;;;11.10;82.45
74346;BME280;62776;50.518;6.732;2023-06-04T00:52:27;96884.59;;;11.07;83.10
74346;BME280;62776;50.518;6.732;2023-06-04T00:55:14;96879.44;;;11.03;82.44
74346;BME280;62776;50.518;6.732;2023-06-04T00:58:06;96880.31;;;11.00;83.44
74346;BME280;62776;50.518;6.732;2023-06-04T01:00:54;96876.00;;;10.93;83.36
74346;BME280;62776;50.518;6.732;2023-06-04T01:03:45;96876.94;;;10.89;82.40
74346;BME280;62776;50.518;6.732;2023-06-04T01:06:39;96873.50;;;10.81;83.46
74346;BME280;62776;50.518;6.732;2023-06-04T01:09:29;96871.75;;;10.85;83.04
74346;BME280;62776;50.518;6.732;2023-06-04T01:12:17;96880.44;;;10.84;82.96
74346;BME280;62776;50.518;6.732;2023-06-04T01:15:03;96880.44;;;10.82;83.61
74346;BME280;62776;50.518;6.732;2023-06-04T01:17:59;96870.06;;;10.75;83.75
74346;BME280;62776;50.518;6.732;2023-06-04T01:20:49;96877.00;;;10.76;85.29
74346;BME280;62776;50.518;6.732;2023-06-04T01:23:50;96873.66;;;10.60;86.12
74346;BME280;62776;50.518;6.732;2023-06-04T01:26:44;96876.16;;;10.69;85.90
74346;BME280;62776;50.518;6.732;2023-06-04T01:29:31;96875.34;;;10.61;85.94
74346;BME280;62776;50.518;6.732;2023-06-04T01:32:18;96879.72;;;10.59;87.78
74346;BME280;62776;50.518;6.732;2023-06-04T01:35:08;96874.56;;;10.48;88.39
74346;BME280;62776;50.518;6.732;2023-06-04T01:37:56;96877.16;;;10.48;89.79
74346;BME280;62776;50.518;6.732;2023-06-04T01:40:43;96875.47;;;10.43;88.02
74346;BME280;62776;50.518;6.732;2023-06-04T01:43:29;96876.31;;;10.39;86.89
74346;BME280;62776;50.518;6.732;2023-06-04T01:46:17;96880.66;;;10.38;88.21
74346;BME280;62776;50.518;6.732;2023-06-04T01:49:03;96869.41;;;10.38;87.44
74346;BME280;62776;50.518;6.732;2023-06-04T01:51:52;96867.69;;;10.35;88.17
74346;BME280;62776;50.518;6.732;2023-06-04T01:54:38;96874.63;;;10.32;88.93
74346;BME280;62776;50.518;6.732;2023-06-04T01:57:36;96871.19;;;10.27;88.60
74346;BME280;62776;50.518;6.732;2023-06-04T02:00:23;96871.22;;;10.24;90.12
74346;BME280;62776;50.518;6.732;2023-06-04T02:03:15;96879.88;;;10.20;92.03
74346;BME280;62776;50.518;6.732;2023-06-04T02:06:02;96871.22;;;10.18;91.52
74346;BME280;62776;50.518;6.732;2023-06-04T02:08:49;96869.50;;;10.17;91.04
74346;BME280;62776;50.518;6.732;2023-06-04T02:11:36;96878.16;;;10.16;90.03
74346;BME280;62776;50.518;6.732;2023-06-04T02:14:22;96868.63;;;10.15;90.74
74346;BME280;62776;50.518;6.732;2023-06-04T02:17:09;96879.88;;;10.11;91.56
74346;BME280;62776;50.518;6.732;2023-06-04T02:19:59;96880.75;;;10.06;91.65
74346;BME280;62776;50.518;6.732;2023-06-04T02:22:45;96883.34;;;10.06;91.37
74346;BME280;62776;50.518;6.732;2023-06-04T02:25:31;96885.09;;;10.03;92.76
74346;BME280;62776;50.518;6.732;2023-06-04T02:28:17;96879.06;;;10.02;92.96
74346;BME280;62776;50.518;6.732;2023-06-04T02:31:04;96876.44;;;10.01;92.26
74346;BME280;62776;50.518;6.732;2023-06-04T02:33:50;96884.25;;;9.98;92.02
74346;BME280;62776;50.518;6.732;2023-06-04T02:36:36;96879.91;;;9.95;93.15
74346;BME280;62776;50.518;6.732;2023-06-04T02:39:22;96892.91;;;9.92;92.80
74346;BME280;62776;50.518;6.732;2023-06-04T02:42:08;96886.00;;;9.90;93.50
74346;BME280;62776;50.518;6.732;2023-06-04T02:45:01;96883.41;;;9.84;92.71
74346;BME280;62776;50.518;6.732;2023-06-04T02:47:48;96888.63;;;9.82;93.99
74346;BME280;62776;50.518;6.732;2023-06-04T02:50:37;96883.44;;;9.82;93.40
74346;BME280;62776;50.518;6.732;2023-06-04T02:53:23;96886.88;;;9.78;93.17
74346;BME280;62776;50.518;6.732;2023-06-04T02:56:10;96884.28;;;9.78;94.09
74346;BME280;62776;50.518;6.732;2023-06-04T02:58:58;96882.56;;;9.76;93.83
74346;BME280;62776;50.518;6.732;2023-06-04T03:01:44;96886.03;;;9.73;93.55
74346;BME280;62776;50.518;6.732;2023-06-04T03:04:31;96883.44;;;9.70;93.19
74346;BME280;62776;50.518;6.732;2023-06-04T03:07:20;96886.91;;;9.69;92.53
74346;BME280;62776;50.518;6.732;2023-06-04T03:10:09;96892.09;;;9.69;92.93
74346;BME280;62776;50.518;6.732;2023-06-04T03:12:56;96892.94;;;9.70;96.33
74346;BME280;62776;50.518;6.732;2023-06-04T03:15:44;96888.63;;;9.64;95.35
74346;BME280;62776;50.518;6.732;2023-06-04T03:18:35;96903.38;;;9.64;94.75
74346;BME280;62776;50.518;6.732;2023-06-04T03:21:23;96896.44;;;9.63;94.29
74346;BME280;62776;50.518;6.732;2023-06-04T03:24:11;96892.09;;;9.59;93.99
74346;BME280;62776;50.518;6.732;2023-06-04T03:27:00;96899.03;;;9.55;95.65
74346;BME280;62776;50.518;6.732;2023-06-04T03:29:48;96892.09;;;9.51;95.80
74346;BME280;62776;50.518;6.732;2023-06-04T03:32:34;96893.00;;;9.44;94.69
74346;BME280;62776;50.518;6.732;2023-06-04T03:35:22;96891.25;;;9.40;95.86
74346;BME280;62776;50.518;6.732;2023-06-04T03:38:08;96891.28;;;9.41;96.87
74346;BME280;62776;50.518;6.732;2023-06-04T03:40:54;96889.53;;;9.42;96.60
74346;BME280;62776;50.518;6.732;2023-06-04T03:43:40;96888.66;;;9.43;99.30
74346;BME280;62776;50.518;6.732;2023-06-04T03:46:28;96888.69;;;9.44;97.96
74346;BME280;62776;50.518;6.732;2023-06-04T03:49:18;96882.59;;;9.45;96.85
74346;BME280;62776;50.518;6.732;2023-06-04T03:52:05;96892.09;;;9.48;97.59
74346;BME280;62776;50.518;6.732;2023-06-04T03:54:51;96890.41;;;9.50;96.84
74346;BME280;62776;50.518;6.732;2023-06-04T03:57:38;96888.66;;;9.49;96.14
74346;BME280;62776;50.518;6.732;2023-06-04T04:00:24;96888.66;;;9.52;99.30
74346;BME280;62776;50.518;6.732;2023-06-04T04:03:11;96881.72;;;9.54;98.86
74346;BME280;62776;50.518;6.732;2023-06-04T04:05:57;96875.66;;;9.57;99.28
74346;BME280;62776;50.518;6.732;2023-06-04T04:08:44;96884.31;;;9.60;98.38
74346;BME280;62776;50.518;6.732;2023-06-04T04:11:30;96876.53;;;9.60;100.00
74346;BME280;62776;50.518;6.732;2023-06-04T04:14:17;96881.72;;;9.63;99.05
74346;BME280;62776;50.518;6.732;2023-06-04T04:17:04;96878.25;;;9.67;98.49
74346;BME280;62776;50.518;6.732;2023-06-04T04:19:51;96878.25;;;9.73;100.00
74346;BME280;62776;50.518;6.732;2023-06-04T04:22:40;96876.53;;;9.71;99.34
74346;BME280;62776;50.518;6.732;2023-06-04T04:25:35;96879.09;;;9.83;100.00
74346;BME280;62776;50.518;6.732;2023-06-04T04:28:22;96884.28;;;9.90;100.00
74346;BME280;62776;50.518;6.732;2023-06-04T04:31:09;96883.38;;;9.99;100.00
74346;BME280;62776;50.518;6.732;2023-06-04T04:33:56;96881.66;;;10.02;99.66
74346;BME280;62776;50.518;6.732;2023-06-04T04:36:43;96885.94;;;10.14;99.94
74346;BME280;62776;50.518;6.732;2023-06-04T04:39:30;96879.00;;;10.21;100.00
74346;BME280;62776;50.518;6.732;2023-06-04T04:42:17;96885.03;;;10.29;100.00
74346;BME280;62776;50.518;6.732;2023-06-04T04:45:04;96878.97;;;10.34;100.00
74346;BME280;62776;50.518;6.732;2023-06-04T04:47:52;96884.97;;;10.44;100.00
74346;BME280;62776;50.518;6.732;2023-06-04T04:50:38;96885.81;;;10.52;100.00
74346;BME280;62776;50.518;6.732;2023-06-04T04:53:26;96889.22;;;10.58;100.00
74346;BME280;62776;50.518;6.732;2023-06-04T04:56:13;96890.06;;;10.68;100.00
74346;BME280;62776;50.518;6.732;2023-06-04T04:59:01;96881.34;;;10.72;100.00
74346;BME280;62776;50.518;6.732;2023-06-04T05:01:48;96880.44;;;10.81;100.00
74346;BME280;62776;50.518;6.732;2023-06-04T05:04:35;96882.97;;;10.91;100.00
74346;BME280;62776;50.518;6.732;2023-06-04T05:07:21;96884.66;;;11.01;100.00
74346;BME280;62776;50.518;6.732;2023-06-04T05:10:10;96894.13;;;11.11;100.00
74346;BME280;62776;50.518;6.732;2023-06-04T05:12:58;96899.28;;;11.17;100.00
74346;BME280;62776;50.518;6.732;2023-06-04T05:15:45;96894.84;;;11.30;100.00
74346;BME280;62776;50.518;6.732;2023-06-04T05:18:34;96899.97;;;11.39;97.99
74346;BME280;62776;50.518;6.732;2023-06-04T05:21:27;96898.13;;;11.52;98.00
74346;BME280;62776;50.518;6.732;2023-06-04T05:24:15;96901.53;;;11.60;95.95
74346;BME280;62776;50.518;6.732;2023-06-04T05:27:01;96908.41;;;11.71;92.67
74346;BME280;62776;50.518;6.732;2023-06-04T05:29:49;96904.84;;;11.83;89.20
74346;BME280;62776;50.518;6.732;2023-06-04T05:32:35;96908.22;;;11.91;86.64
74346;BME280;62776;50.518;6.732;2023-06-04T05:35:27;96904.63;;;12.01;85.46
74346;BME280;62776;50.518;6.732;2023-06-04T05:38:14;96908.00;;;12.14;83.76
74346;BME280;62776;50.518;6.732;2023-06-04T05:41:04;96907.00;;;12.22;80.27
74346;BME280;62776;50.518;6.732;2023-06-04T05:43:51;96904.28;;;12.31;82.97
74346;BME280;62776;50.518;6.732;2023-06-04T05:46:38;96904.19;;;12.40;79.49
74346;BME280;62776;50.518;6.732;2023-06-04T05:49:24;96904.94;;;12.50;81.60
74346;BME280;62776;50.518;6.732;2023-06-04T05:52:11;96916.16;;;12.57;78.87
74346;BME280;62776;50.518;6.732;2023-06-04T05:54:57;96918.66;;;12.64;77.10
74346;BME280;62776;50.518;6.732;2023-06-04T05:57:45;96920.31;;;12.73;76.38
74346;BME280;62776;50.518;6.732;2023-06-04T06:00:37;96917.63;;;12.79;71.83
74346;BME280;62776;50.518;6.732;2023-06-04T06:03:23;96931.38;;;12.88;73.00
74346;BME280;62776;50.518;6.732;2023-06-04T06:06:10;96922.56;;;12.98;73.36
74346;BME280;62776;50.518;6.732;2023-06-04T06:08:56;96924.25;;;13.04;71.20
74346;BME280;62776;50.518;6.732;2023-06-04T06:11:44;96927.63;;;13.12;71.13
74346;BME280;62776;50.518;6.732;2023-06-04T06:14:30;96930.09;;;13.21;68.80
74346;BME280;62776;50.518;6.732;2023-06-04T06:17:16;96929.97;;;13.30;70.91
74346;BME280;62776;50.518;6.732;2023-06-04T06:20:03;96935.06;;;13.38;69.80
74346;BME280;62776;50.518;6.732;2023-06-04T06:22:53;96933.22;;;13.44;69.02
74346;BME280;62776;50.518;6.732;2023-06-04T06:25:39;96940.81;;;13.61;71.25
74346;BME280;62776;50.518;6.732;2023-06-04T06:28:33;96936.28;;;13.71;69.17
74346;BME280;62776;50.518;6.732;2023-06-04T06:31:27;96945.72;;;13.81;66.27
74346;BME280;62776;50.518;6.732;2023-06-04T06:34:30;96941.22;;;13.89;65.16
74346;BME280;62776;50.518;6.732;2023-06-04T06:37:21;96937.53;;;14.00;64.81
74346;BME280;62776;50.518;6.732;2023-06-04T06:40:08;96938.16;;;14.13;64.71
74346;BME280;62776;50.518;6.732;2023-06-04T06:42:56;96944.94;;;14.23;64.52
74346;BME280;62776;50.518;6.732;2023-06-04T06:45:51;96943.94;;;14.32;62.26
74346;BME280;62776;50.518;6.732;2023-06-04T06:48:37;96935.00;;;14.45;65.62
74346;BME280;62776;50.518;6.732;2023-06-04T06:51:23;96944.53;;;14.47;62.58
74346;BME280;62776;50.518;6.732;2023-06-04T06:54:09;96945.09;;;14.63;63.17
74346;BME280;62776;50.518;6.732;2023-06-04T06:56:56;96939.69;;;14.72;61.85
74346;BME280;62776;50.518;6.732;2023-06-04T06:59:44;96952.41;;;14.89;62.51
74346;BME280;62776;50.518;6.732;2023-06-04T07:02:31;96952.19;;;14.98;61.65
74346;BME280;62776;50.518;6.732;2023-06-04T07:05:18;96939.88;;;15.03;60.69
74346;BME280;62776;50.518;6.732;2023-06-04T07:08:04;96953.47;;;15.20;60.47
74346;BME280;62776;50.518;6.732;2023-06-04T07:10:57;96945.34;;;15.32;61.07
74346;BME280;62776;50.518;6.732;2023-06-04T07:13:44;96942.44;;;15.44;58.62
74346;BME280;62776;50.518;6.732;2023-06-04T07:16:32;96949.19;;;15.56;58.07
74346;BME280;62776;50.518;6.732;2023-06-04T07:19:26;96949.66;;;15.71;60.16
74346;BME280;62776;50.518;6.732;2023-06-04T07:22:14;96950.09;;;15.90;59.93
74346;BME280;62776;50.518;6.732;2023-06-04T07:25:04;96951.47;;;16.05;58.20
74346;BME280;62776;50.518;6.732;2023-06-04T07:27:50;96958.22;;;16.15;55.40
74346;BME280;62776;50.518;6.732;2023-06-04T07:30:45;96952.69;;;16.25;54.23
74346;BME280;62776;50.518;6.732;2023-06-04T07:33:43;96948.84;;;16.38;53.83
74346;BME280;62776;50.518;6.732;2023-06-04T07:36:30;96945.69;;;16.58;55.08
74346;BME280;62776;50.518;6.732;2023-06-04T07:39:19;96949.78;;;16.68;53.75
74346;BME280;62776;50.518;6.732;2023-06-04T07:42:07;96951.06;;;16.84;54.80
74346;BME280;62776;50.518;6.732;2023-06-04T07:44:54;96946.69;;;16.85;52.21
74346;BME280;62776;50.518;6.732;2023-06-04T07:47:42;96955.03;;;16.99;53.05
74346;BME280;62776;50.518;6.732;2023-06-04T07:50:31;96954.56;;;17.14;53.03
74346;BME280;62776;50.518;6.732;2023-06-04T07:53:17;96958.50;;;17.29;51.23
74346;BME280;62776;50.518;6.732;2023-06-04T07:56:04;96951.22;;;17.38;50.56
74346;BME280;62776;50.518;6.732;2023-06-04T07:58:51;96963.00;;;17.53;50.48
74346;BME280;62776;50.518;6.732;2023-06-04T08:01:37;96963.47;;;17.67;50.30
74346;BME280;62776;50.518;6.732;2023-06-04T08:04:28;96956.00;;;17.81;53.12
74346;BME280;62776;50.518;6.732;2023-06-04T08:07:14;96958.19;;;17.95;50.97
74346;BME280;62776;50.518;6.732;2023-06-04T08:10:02;96960.34;;;18.08;51.20
74346;BME280;62776;50.518;6.732;2023-06-04T08:12:49;96960.88;;;18.19;49.47
74346;BME280;62776;50.518;6.732;2023-06-04T08:15:35;96963.31;;;18.24;50.18
74346;BME280;62776;50.518;6.732;2023-06-04T08:18:21;96964.19;;;18.24;49.57
74346;BME280;62776;50.518;6.732;2023-06-04T08:21:11;96956.06;;;18.32;50.02
74346;BME280;62776;50.518;6.732;2023-06-04T08:24:03;96960.13;;;18.41;50.02
74346;BME280;62776;50.518;6.732;2023-06-04T08:26:49;96961.22;;;18.60;50.67
74346;BME280;62776;50.518;6.732;2023-06-04T08:29:37;96966.97;;;18.71;48.88
74346;BME280;62776;50.518;6.732;2023-06-04T08:32:25;96968.91;;;18.66;47.68
74346;BME280;62776;50.518;6.732;2023-06-04T08:35:14;96964.59;;;18.65;48.48
74346;BME280;62776;50.518;6.732;2023-06-04T08:38:01;96966.06;;;18.72;47.21
74346;BME280;62776;50.518;6.732;2023-06-04T08:40:52;96968.59;;;18.75;47.94
74346;BME280;62776;50.518;6.732;2023-06-04T08:43:39;96975.59;;;18.99;49.24
74346;BME280;62776;50.518;6.732;2023-06-04T08:46:26;96965.13;;;18.98;46.34
74346;BME280;62776;50.518;6.732;2023-06-04T08:49:16;96965.19;;;18.96;47.75
74346;BME280;62776;50.518;6.732;2023-06-04T08:52:06;96967.31;;;19.10;46.75
74346;BME280;62776;50.518;6.732;2023-06-04T08:54:54;96975.75;;;19.19;47.29
74346;BME280;62776;50.518;6.732;2023-06-04T08:57:43;96965.31;;;19.16;45.26
74346;BME280;62776;50.518;6.732;2023-06-04T09:00:30;96972.53;;;19.11;45.85
74346;BME280;62776;50.518;6.732;2023-06-04T09:03:19;96968.25;;;19.09;45.46
74346;BME280;62776;50.518;6.732;2023-06-04T09:06:09;96967.00;;;19.17;45.12
74346;BME280;62776;50.518;6.732;2023-06-04T09:09:03;96974.69;;;19.23;45.28
74346;BME280;62776;50.518;6.732;2023-06-04T09:11:55;96969.59;;;19.42;45.92
74346;BME280;62776;50.518;6.732;2023-06-04T09:14:43;96973.44;;;19.57;44.17
74346;BME280;62776;50.518;6.732;2023-06-04T09:17:29;96972.84;;;19.72;45.49
74346;BME280;62776;50.518;6.732;2023-06-04T09:20:22;96975.81;;;19.86;46.17
74346;BME280;62776;50.518;6.732;2023-06-04T09:23:14;96982.72;;;20.10;44.19
74346;BME280;62776;50.518;6.732;2023-06-04T09:26:07;96981.25;;;20.25;43.44
74346;BME280;62776;50.518;6.732;2023-06-04T09:28:54;96981.34;;;20.43;44.78
74346;BME280;62776;50.518;6.732;2023-06-04T09:31:59;96978.56;;;20.46;42.47
74346;BME280;62776;50.518;6.732;2023-06-04T09:34:47;96984.25;;;20.37;42.56
74346;BME280;62776;50.518;6.732;2023-06-04T09:37:35;96982.72;;;20.32;42.29
74346;BME280;62776;50.518;6.732;2023-06-04T09:40:22;96978.03;;;20.38;41.87
74346;BME280;62776;50.518;6.732;2023-06-04T09:43:20;96994.69;;;20.40;41.25
74346;BME280;62776;50.518;6.732;2023-06-04T09:46:14;96984.22;;;20.57;42.48
74346;BME280;62776;50.518;6.732;2023-06-04T09:49:05;96992.31;;;20.54;41.07
74346;BME280;62776;50.518;6.732;2023-06-04T09:51:52;96982.94;;;20.68;42.23
74346;BME280;62776;50.518;6.732;2023-06-04T09:54:40;96987.16;;;20.72;41.76
74346;BME280;62776;50.518;6.732;2023-06-04T09:57:30;96971.91;;;20.78;40.18
74346;BME280;62776;50.518;6.732;2023-06-04T10:00:20;96978.22;;;20.94;40.91
74346;BME280;62776;50.518;6.732;2023-06-04T10:03:12;96969.56;;;20.91;40.33
74346;BME280;62776;50.518;6.732;2023-06-04T10:06:03;96973.69;;;20.78;40.27
74346;BME280;62776;50.518;6.732;2023-06-04T10:08:50;96967.56;;;20.96;41.83
74346;BME280;62776;50.518;6.732;2023-06-04T10:11:42;96966.50;;;21.20;40.90
74346;BME280;62776;50.518;6.732;2023-06-04T10:14:45;96965.28;;;21.27;40.21
74346;BME280;62776;50.518;6.732;2023-06-04T10:17:35;96958.38;;;21.25;39.39
74346;BME280;62776;50.518;6.732;2023-06-04T10:20:24;96957.81;;;21.55;40.65
74346;BME280;62776;50.518;6.732;2023-06-04T10:23:11;96959.13;;;21.83;40.06
74346;BME280;62776;50.518;6.732;2023-06-04T10:25:59;96960.84;;;21.84;35.87
74346;BME280;62776;50.518;6.732;2023-06-04T10:28:47;96960.75;;;22.04;36.85
74346;BME280;62776;50.518;6.732;2023-06-04T10:31:39;96966.38;;;21.60;35.33
74346;BME280;62776;50.518;6.732;2023-06-04T10:34:27;96968.84;;;21.82;37.00
74346;BME280;62776;50.518;6.732;2023-06-04T10:37:24;96965.66;;;21.94;38.66
74346;BME280;62776;50.518;6.732;2023-06-04T10:40:13;96977.31;;;22.26;35.62
74346;BME280;62776;50.518;6.732;2023-06-04T10:43:07;96955.63;;;22.18;32.92
74346;BME280;62776;50.518;6.732;2023-06-04T10:45:55;96969.97;;;22.31;35.75
74346;BME280;62776;50.518;6.732;2023-06-04T10:48:48;96970.75;;;22.50;37.03
74346;BME280;62776;50.518;6.732;2023-06-04T10:51:36;96958.88;;;22.76;36.82
74346;BME280;62776;50.518;6.732;2023-06-04T10:54:40;96955.66;;;22.69;35.76
74346;BME280;62776;50.518;6.732;2023-06-04T10:57:26;96958.25;;;22.71;36.23
74346;BME280;62776;50.518;6.732;2023-06-04T11:00:13;96963.00;;;22.64;35.73
74346;BME280;62776;50.518;6.732;2023-06-04T11:03:01;96966.44;;;22.66;35.22
74346;BME280;62776;50.518;6.732;2023-06-04T11:05:49;96964.28;;;22.56;36.46
74346;BME280;62776;50.518;6.732;2023-06-04T11:08:38;96954.28;;;22.79;35.72
74346;BME280;62776;50.518;6.732;2023-06-04T11:11:27;96954.06;;;23.00;36.57
74346;BME280;62776;50.518;6.732;2023-06-04T11:14:14;96950.00;;;23.10;34.35
74346;BME280;62776;50.518;6.732;2023-06-04T11:17:20;96944.41;;;22.99;35.74
74346;BME280;62776;50.518;6.732;2023-06-04T11:20:19;96940.94;;;23.14;36.33
74346;BME280;62776;50.518;6.732;2023-06-04T11:23:06;96943.84;;;23.42;35.53
74346;BME280;62776;50.518;6.732;2023-06-04T11:25:58;96944.91;;;22.72;33.94
74346;BME280;62776;50.518;6.732;2023-06-04T11:28:51;96953.91;;;23.03;33.62
74346;BME280;62776;50.518;6.732;2023-06-04T11:31:44;96945.31;;;23.15;35.35
74346;BME280;62776;50.518;6.732;2023-06-04T11:34:33;96947.81;;;23.33;33.75
74346;BME280;62776;50.518;6.732;2023-06-04T11:37:22;96947.69;;;23.52;34.63
74346;BME280;62776;50.518;6.732;2023-06-04T11:40:18;96945.13;;;23.66;35.17
74346;BME280;62776;50.518;6.732;2023-06-04T11:43:13;96953.69;;;23.87;32.77
74346;BME280;62776;50.518;6.732;2023-06-04T11:45:59;96945.91;;;23.84;31.44
74346;BME280;62776;50.518;6.732;2023-06-04T11:48:55;96945.63;;;23.57;31.87
74346;BME280;62776;50.518;6.732;2023-06-04T11:51:48;96950.38;;;23.35;33.26
74346;BME280;62776;50.518;6.732;2023-06-04T11:54:37;96944.97;;;23.54;33.60
74346;BME280;62776;50.518;6.732;2023-06-04T11:57:24;96944.88;;;23.55;32.95
74346;BME280;62776;50.518;6.732;2023-06-04T12:00:14;96944.09;;;23.69;34.80
74346;BME280;62776;50.518;6.732;2023-06-04T12:03:00;96950.44;;;23.51;31.85
74346;BME280;62776;50.518;6.732;2023-06-04T12:05:54;96942.75;;;23.62;32.55
74346;BME280;62776;50.518;6.732;2023-06-04T12:08:56;96942.09;;;23.41;32.18
74346;BME280;62776;50.518;6.732;2023-06-04T12:11:49;96933.63;;;23.34;32.21
74346;BME280;62776;50.518;6.732;2023-06-04T12:14:38;96936.50;;;23.30;32.97
74346;BME280;62776;50.518;6.732;2023-06-04T12:17:24;96943.19;;;23.37;32.11
74346;BME280;62776;50.518;6.732;2023-06-04T12:20:11;96933.94;;;23.13;31.30
74346;BME280;62776;50.518;6.732;2023-06-04T12:22:57;96925.81;;;23.31;32.36
74346;BME280;62776;50.518;6.732;2023-06-04T12:25:50;96924.09;;;23.15;33.98
74346;BME280;62776;50.518;6.732;2023-06-04T12:28:37;96926.13;;;23.42;34.39
74346;BME280;62776;50.518;6.732;2023-06-04T12:31:23;96920.47;;;23.64;32.51
74346;BME280;62776;50.518;6.732;2023-06-04T12:34:10;96922.84;;;23.69;32.37
74346;BME280;62776;50.518;6.732;2023-06-04T12:36:57;96922.78;;;23.70;32.84
74346;BME280;62776;50.518;6.732;2023-06-04T12:39:45;96929.53;;;23.91;32.31
74346;BME280;62776;50.518;6.732;2023-06-04T12:42:33;96936.03;;;23.86;31.66
74346;BME280;62776;50.518;6.732;2023-06-04T12:45:19;96930.72;;;23.86;32.01
74346;BME280;62776;50.518;6.732;2023-06-04T12:48:06;96923.28;;;23.77;31.87
74346;BME280;62776;50.518;6.732;2023-06-04T12:50:52;96921.31;;;23.80;33.21
74346;BME280;62776;50.518;6.732;2023-06-04T12:53:40;96924.38;;;23.88;31.75
74346;BME280;62776;50.518;6.732;2023-06-04T12:56:26;96922.50;;;23.90;31.00
74346;BME280;62776;50.518;6.732;2023-06-04T12:59:13;96920.97;;;23.86;32.58
74346;BME280;62776;50.518;6.732;2023-06-04T13:02:00;96935.59;;;23.93;32.34
74346;BME280;62776;50.518;6.732;2023-06-04T13:04:47;96924.28;;;24.05;32.24
74346;BME280;62776;50.518;6.732;2023-06-04T13:07:33;96929.59;;;24.05;30.85
74346;BME280;62776;50.518;6.732;2023-06-04T13:10:21;96920.66;;;24.06;30.56
74346;BME280;62776;50.518;6.732;2023-06-04T13:13:08;96913.56;;;24.23;30.28
74346;BME280;62776;50.518;6.732;2023-06-04T13:15:54;96917.47;;;24.31;30.07
74346;BME280;62776;50.518;6.732;2023-06-04T13:18:49;96911.66;;;24.25;29.48
74346;BME280;62776;50.518;6.732;2023-06-04T13:21:39;96914.19;;;24.42;30.19
74346;BME280;62776;50.518;6.732;2023-06-04T13:24:25;96910.94;;;24.81;30.38
74346;BME280;62776;50.518;6.732;2023-06-04T13:27:11;96916.41;;;25.21;28.22
74346;BME280;62776;50.518;6.732;2023-06-04T13:29:58;96911.91;;;25.50;27.69
74346;BME280;62776;50.518;6.732;2023-06-04T13:32:44;96904.81;;;25.77;27.39
74346;BME280;62776;50.518;6.732;2023-06-04T13:35:40;96908.69;;;26.40;27.52
74346;BME280;62776;50.518;6.732;2023-06-04T13:38:29;96910.22;;;26.69;25.66
74346;BME280;62776;50.518;6.732;2023-06-04T13:41:15;96908.78;;;27.03;25.89
74346;BME280;62776;50.518;6.732;2023-06-04T13:44:02;96904.66;;;27.35;25.85
74346;BME280;62776;50.518;6.732;2023-06-04T13:46:48;96919.25;;;27.91;25.65
74346;BME280;62776;50.518;6.732;2023-06-04T13:49:35;96921.41;;;28.22;24.71
74346;BME280;62776;50.518;6.732;2023-06-04T13:52:23;96920.91;;;28.64;23.71
74346;BME280;62776;50.518;6.732;2023-06-04T13:55:11;96911.00;;;29.00;22.61
74346;BME280;62776;50.518;6.732;2023-06-04T13:57:59;96898.31;;;28.91;22.34
74346;BME280;62776;50.518;6.732;2023-06-04T14:00:52;96903.81;;;29.11;23.00
74346;BME280;62776;50.518;6.732;2023-06-04T14:03:41;96895.94;;;29.54;22.23
74346;BME280;62776;50.518;6.732;2023-06-04T14:06:28;96893.38;;;29.64;21.80
74346;BME280;62776;50.518;6.732;2023-06-04T14:09:14;96885.34;;;29.64;22.62
74346;BME280;62776;50.518;6.732;2023-06-04T14:12:03;96896.13;;;29.96;23.38
74346;BME280;62776;50.518;6.732;2023-06-04T14:14:50;96886.06;;;30.72;21.69
74346;BME280;62776;50.518;6.732;2023-06-04T14:17:39;96886.94;;;31.54;21.24
74346;BME280;62776;50.518;6.732;2023-06-04T14:20:27;96885.34;;;31.42;19.39
74346;BME280;62776;50.518;6.732;2023-06-04T14:23:14;96889.78;;;31.22;20.52
74346;BME280;62776;50.518;6.732;2023-06-04T14:26:02;96885.91;;;31.85;20.76
74346;BME280;62776;50.518;6.732;2023-06-04T14:28:51;96888.25;;;32.09;21.23
74346;BME280;62776;50.518;6.732;2023-06-04T14:31:37;96883.31;;;32.43;18.61
74346;BME280;62776;50.518;6.732;2023-06-04T14:34:26;96884.88;;;32.45;18.90
74346;BME280;62776;50.518;6.732;2023-06-04T14:37:13;96883.91;;;32.56;19.54
74346;BME280;62776;50.518;6.732;2023-06-04T14:39:59;96882.41;;;33.09;18.72
74346;BME280;62776;50.518;6.732;2023-06-04T14:42:47;96881.00;;;33.05;17.98
74346;BME280;62776;50.518;6.732;2023-06-04T14:45:34;96875.31;;;33.08;18.57
74346;BME280;62776;50.518;6.732;2023-06-04T14:48:20;96877.16;;;33.81;19.48
74346;BME280;62776;50.518;6.732;2023-06-04T14:51:09;96877.94;;;34.19;17.90
74346;BME280;62776;50.518;6.732;2023-06-04T14:53:56;96870.63;;;33.84;17.45